sensor_id;sensor_type;location;lat;lon;timestamp;P1;durP1;ratioP1;P2;durP2;ratioP2
32292;SDS011;43233;48.608;8.838;2024-03-02T00:01:03;15.63;;;10.30;;
32292;SDS011;43233;48.608;8.838;2024-03-02T00:03:29;16.13;;;10.40;;
32292;SDS011;43233;48.608;8.838;2024-03-02T00:05:55;14.50;;;9.37;;
32292;SDS011;43233;48.608;8.838;2024-03-02T00:08:22;18.07;;;10.27;;
32292;SDS011;43233;48.608;8.838;2024-03-02T00:10:57;14.67;;;10.47;;
32292;SDS011;43233;48.608;8.838;2024-03-02T00:13:23;20.00;;;10.77;;
32292;SDS011;43233;48.608;8.838;2024-03-02T00:15:53;20.00;;;10.77;;
32292;SDS011;43233;48.608;8.838;2024-03-02T00:18:27;12.90;;;9.87;;
32292;SDS011;43233;48.608;8.838;2024-03-02T00:20:56;20.00;;;11.33;;
32292;SDS011;43233;48.608;8.838;2024-03-02T00:23:22;18.23;;;11.50;;
32292;SDS011;43233;48.608;8.838;2024-03-02T00:25:50;11.63;;;8.90;;
32292;SDS011;43233;48.608;8.838;2024-03-02T00:28:21;15.53;;;10.00;;
32292;SDS011;43233;48.608;8.838;2024-03-02T00:33:36;14.60;;;10.30;;
32292;SDS011;43233;48.608;8.838;2024-03-02T00:36:05;14.37;;;9.57;;
32292;SDS011;43233;48.608;8.838;2024-03-02T00:38:32;15.17;;;11.73;;
32292;SDS011;43233;48.608;8.838;2024-03-02T00:41:00;14.33;;;10.13;;
32292;SDS011;43233;48.608;8.838;2024-03-02T00:46:15;16.17;;;11.07;;
32292;SDS011;43233;48.608;8.838;2024-03-02T00:49:05;17.00;;;9.80;;
32292;SDS011;43233;48.608;8.838;2024-03-02T00:51:31;15.60;;;11.43;;
32292;SDS011;43233;48.608;8.838;2024-03-02T00:54:01;19.50;;;11.40;;
32292;SDS011;43233;48.608;8.838;2024-03-02T00:56:29;18.50;;;12.03;;
32292;SDS011;43233;48.608;8.838;2024-03-02T00:58:55;14.93;;;9.97;;
32292;SDS011;43233;48.608;8.838;2024-03-02T01:01:21;20.23;;;11.07;;
32292;SDS011;43233;48.608;8.838;2024-03-02T01:03:47;18.67;;;11.23;;
32292;SDS011;43233;48.608;8.838;2024-03-02T01:06:14;17.57;;;11.10;;
32292;SDS011;43233;48.608;8.838;2024-03-02T01:08:40;17.10;;;12.00;;
32292;SDS011;43233;48.608;8.838;2024-03-02T01:11:06;16.27;;;10.97;;
32292;SDS011;43233;48.608;8.838;2024-03-02T01:13:32;16.63;;;10.60;;
32292;SDS011;43233;48.608;8.838;2024-03-02T01:15:58;18.63;;;11.27;;
32292;SDS011;43233;48.608;8.838;2024-03-02T01:18:24;21.53;;;12.10;;
32292;SDS011;43233;48.608;8.838;2024-03-02T01:20:50;18.10;;;10.80;;
32292;SDS011;43233;48.608;8.838;2024-03-02T01:23:21;21.07;;;12.33;;
32292;SDS011;43233;48.608;8.838;2024-03-02T01:25:47;19.30;;;12.27;;
32292;SDS011;43233;48.608;8.838;2024-03-02T01:28:13;17.90;;;11.83;;
32292;SDS011;43233;48.608;8.838;2024-03-02T01:30:39;16.13;;;11.30;;
32292;SDS011;43233;48.608;8.838;2024-03-02T01:33:05;19.97;;;11.10;;
32292;SDS011;43233;48.608;8.838;2024-03-02T01:35:33;18.03;;;12.17;;
32292;SDS011;43233;48.608;8.838;2024-03-02T01:38:00;16.53;;;10.50;;
32292;SDS011;43233;48.608;8.838;2024-03-02T01:40:26;18.03;;;12.37;;
32292;SDS011;43233;48.608;8.838;2024-03-02T01:42:52;23.77;;;11.23;;
32292;SDS011;43233;48.608;8.838;2024-03-02T01:45:23;19.57;;;11.63;;
32292;SDS011;43233;48.608;8.838;2024-03-02T01:47:48;19.70;;;11.90;;
32292;SDS011;43233;48.608;8.838;2024-03-02T01:50:14;22.23;;;13.50;;
32292;SDS011;43233;48.608;8.838;2024-03-02T01:52:40;19.47;;;11.57;;
32292;SDS011;43233;48.608;8.838;2024-03-02T01:55:06;18.67;;;11.17;;
32292;SDS011;43233;48.608;8.838;2024-03-02T01:57:32;19.50;;;11.30;;
32292;SDS011;43233;48.608;8.838;2024-03-02T01:59:59;18.90;;;12.40;;
32292;SDS011;43233;48.608;8.838;2024-03-02T02:02:25;16.93;;;11.70;;
32292;SDS011;43233;48.608;8.838;2024-03-02T02:04:51;16.87;;;11.90;;
32292;SDS011;43233;48.608;8.838;2024-03-02T02:07:17;20.67;;;11.90;;
32292;SDS011;43233;48.608;8.838;2024-03-02T02:09:43;18.37;;;11.77;;
32292;SDS011;43233;48.608;8.838;2024-03-02T02:12:12;19.57;;;12.87;;
32292;SDS011;43233;48.608;8.838;2024-03-02T02:14:37;18.27;;;12.90;;
32292;SDS011;43233;48.608;8.838;2024-03-02T02:17:05;21.13;;;13.67;;
32292;SDS011;43233;48.608;8.838;2024-03-02T02:19:30;21.03;;;14.13;;
32292;SDS011;43233;48.608;8.838;2024-03-02T02:21:56;22.10;;;13.90;;
32292;SDS011;43233;48.608;8.838;2024-03-02T02:24:21;22.43;;;14.00;;
32292;SDS011;43233;48.608;8.838;2024-03-02T02:26:47;21.03;;;14.67;;
32292;SDS011;43233;48.608;8.838;2024-03-02T02:29:13;24.00;;;13.47;;
32292;SDS011;43233;48.608;8.838;2024-03-02T02:31:39;19.07;;;13.20;;
32292;SDS011;43233;48.608;8.838;2024-03-02T02:34:05;17.63;;;12.60;;
32292;SDS011;43233;48.608;8.838;2024-03-02T02:36:34;17.40;;;12.20;;
32292;SDS011;43233;48.608;8.838;2024-03-02T02:39:03;20.73;;;13.00;;
32292;SDS011;43233;48.608;8.838;2024-03-02T02:41:30;16.30;;;11.70;;
32292;SDS011;43233;48.608;8.838;2024-03-02T02:43:56;19.20;;;11.13;;
32292;SDS011;43233;48.608;8.838;2024-03-02T02:46:21;18.77;;;11.93;;
32292;SDS011;43233;48.608;8.838;2024-03-02T02:48:47;17.30;;;10.63;;
32292;SDS011;43233;48.608;8.838;2024-03-02T02:51:13;21.07;;;12.80;;
32292;SDS011;43233;48.608;8.838;2024-03-02T02:53:38;20.57;;;13.50;;
32292;SDS011;43233;48.608;8.838;2024-03-02T02:56:07;18.07;;;12.23;;
32292;SDS011;43233;48.608;8.838;2024-03-02T02:58:32;17.73;;;11.80;;
32292;SDS011;43233;48.608;8.838;2024-03-02T03:00:58;18.23;;;12.57;;
32292;SDS011;43233;48.608;8.838;2024-03-02T03:03:24;18.93;;;12.60;;
32292;SDS011;43233;48.608;8.838;2024-03-02T03:05:49;20.57;;;12.40;;
32292;SDS011;43233;48.608;8.838;2024-03-02T03:08:15;17.13;;;12.73;;
32292;SDS011;43233;48.608;8.838;2024-03-02T03:10:43;17.13;;;11.63;;
32292;SDS011;43233;48.608;8.838;2024-03-02T03:13:09;16.87;;;11.33;;
32292;SDS011;43233;48.608;8.838;2024-03-02T03:15:35;22.80;;;14.20;;
32292;SDS011;43233;48.608;8.838;2024-03-02T03:18:04;17.77;;;12.40;;
32292;SDS011;43233;48.608;8.838;2024-03-02T03:20:30;21.67;;;13.77;;
32292;SDS011;43233;48.608;8.838;2024-03-02T03:22:56;22.50;;;13.57;;
32292;SDS011;43233;48.608;8.838;2024-03-02T03:25:22;22.57;;;12.60;;
32292;SDS011;43233;48.608;8.838;2024-03-02T03:27:48;19.03;;;12.27;;
32292;SDS011;43233;48.608;8.838;2024-03-02T03:30:14;20.73;;;12.70;;
32292;SDS011;43233;48.608;8.838;2024-03-02T03:32:39;19.57;;;11.90;;
32292;SDS011;43233;48.608;8.838;2024-03-02T03:35:05;21.00;;;13.73;;
32292;SDS011;43233;48.608;8.838;2024-03-02T03:37:32;19.53;;;12.17;;
32292;SDS011;43233;48.608;8.838;2024-03-02T03:40:01;24.10;;;12.90;;
32292;SDS011;43233;48.608;8.838;2024-03-02T03:42:28;24.13;;;12.87;;
32292;SDS011;43233;48.608;8.838;2024-03-02T03:44:53;17.03;;;11.60;;
32292;SDS011;43233;48.608;8.838;2024-03-02T03:47:19;21.50;;;13.57;;
32292;SDS011;43233;48.608;8.838;2024-03-02T03:49:45;17.93;;;12.50;;
32292;SDS011;43233;48.608;8.838;2024-03-02T03:52:11;24.40;;;14.50;;
32292;SDS011;43233;48.608;8.838;2024-03-02T03:54:36;25.30;;;15.03;;
32292;SDS011;43233;48.608;8.838;2024-03-02T03:57:03;20.93;;;14.47;;
32292;SDS011;43233;48.608;8.838;2024-03-02T03:59:29;18.40;;;12.80;;
32292;SDS011;43233;48.608;8.838;2024-03-02T04:01:55;20.90;;;14.00;;
32292;SDS011;43233;48.608;8.838;2024-03-02T04:04:21;20.70;;;13.70;;
32292;SDS011;43233;48.608;8.838;2024-03-02T04:06:47;23.23;;;13.43;;
32292;SDS011;43233;48.608;8.838;2024-03-02T04:09:12;20.70;;;13.10;;
32292;SDS011;43233;48.608;8.838;2024-03-02T04:11:38;19.03;;;12.37;;
32292;SDS011;43233;48.608;8.838;2024-03-02T04:14:04;19.57;;;12.07;;
32292;SDS011;43233;48.608;8.838;2024-03-02T04:16:31;17.57;;;12.20;;
32292;SDS011;43233;48.608;8.838;2024-03-02T04:18:56;21.40;;;13.80;;
32292;SDS011;43233;48.608;8.838;2024-03-02T04:21:22;36.03;;;16.40;;
32292;SDS011;43233;48.608;8.838;2024-03-02T04:23:48;44.27;;;18.60;;
32292;SDS011;43233;48.608;8.838;2024-03-02T04:26:14;36.13;;;19.70;;
32292;SDS011;43233;48.608;8.838;2024-03-02T04:28:40;34.10;;;16.50;;
32292;SDS011;43233;48.608;8.838;2024-03-02T04:31:05;30.50;;;16.40;;
32292;SDS011;43233;48.608;8.838;2024-03-02T04:33:31;29.17;;;15.27;;
32292;SDS011;43233;48.608;8.838;2024-03-02T04:35:56;19.47;;;12.83;;
32292;SDS011;43233;48.608;8.838;2024-03-02T04:38:22;30.57;;;14.63;;
32292;SDS011;43233;48.608;8.838;2024-03-02T04:40:48;20.67;;;13.10;;
32292;SDS011;43233;48.608;8.838;2024-03-02T04:43:14;22.37;;;13.60;;
32292;SDS011;43233;48.608;8.838;2024-03-02T04:45:41;20.97;;;13.23;;
32292;SDS011;43233;48.608;8.838;2024-03-02T04:48:07;21.23;;;13.30;;
32292;SDS011;43233;48.608;8.838;2024-03-02T04:50:33;25.77;;;14.37;;
32292;SDS011;43233;48.608;8.838;2024-03-02T04:52:59;20.53;;;13.07;;
32292;SDS011;43233;48.608;8.838;2024-03-02T04:55:24;24.57;;;14.20;;
32292;SDS011;43233;48.608;8.838;2024-03-02T04:58:10;20.90;;;12.90;;
32292;SDS011;43233;48.608;8.838;2024-03-02T05:00:35;22.63;;;13.77;;
32292;SDS011;43233;48.608;8.838;2024-03-02T05:03:01;24.13;;;15.50;;
32292;SDS011;43233;48.608;8.838;2024-03-02T05:05:27;22.10;;;13.80;;
32292;SDS011;43233;48.608;8.838;2024-03-02T05:07:53;27.60;;;15.60;;
32292;SDS011;43233;48.608;8.838;2024-03-02T05:10:19;23.90;;;13.50;;
32292;SDS011;43233;48.608;8.838;2024-03-02T05:12:45;26.83;;;14.97;;
32292;SDS011;43233;48.608;8.838;2024-03-02T05:15:11;20.43;;;12.80;;
32292;SDS011;43233;48.608;8.838;2024-03-02T05:17:38;22.37;;;13.97;;
32292;SDS011;43233;48.608;8.838;2024-03-02T05:20:05;21.37;;;13.07;;
32292;SDS011;43233;48.608;8.838;2024-03-02T05:22:33;21.63;;;13.60;;
32292;SDS011;43233;48.608;8.838;2024-03-02T05:24:59;22.57;;;13.40;;
32292;SDS011;43233;48.608;8.838;2024-03-02T05:27:25;19.13;;;13.37;;
32292;SDS011;43233;48.608;8.838;2024-03-02T05:29:51;21.27;;;14.50;;
32292;SDS011;43233;48.608;8.838;2024-03-02T05:32:17;20.87;;;12.00;;
32292;SDS011;43233;48.608;8.838;2024-03-02T05:34:43;21.40;;;13.70;;
32292;SDS011;43233;48.608;8.838;2024-03-02T05:37:08;25.80;;;13.77;;
32292;SDS011;43233;48.608;8.838;2024-03-02T05:39:34;23.10;;;14.87;;
32292;SDS011;43233;48.608;8.838;2024-03-02T05:42:00;23.70;;;14.70;;
32292;SDS011;43233;48.608;8.838;2024-03-02T05:44:25;19.77;;;13.10;;
32292;SDS011;43233;48.608;8.838;2024-03-02T05:46:51;25.67;;;15.23;;
32292;SDS011;43233;48.608;8.838;2024-03-02T05:49:16;37.47;;;14.17;;
32292;SDS011;43233;48.608;8.838;2024-03-02T05:51:42;20.97;;;12.33;;
32292;SDS011;43233;48.608;8.838;2024-03-02T05:54:07;24.63;;;13.10;;
32292;SDS011;43233;48.608;8.838;2024-03-02T05:56:33;19.40;;;11.93;;
32292;SDS011;43233;48.608;8.838;2024-03-02T05:58:59;21.77;;;14.55;;
32292;SDS011;43233;48.608;8.838;2024-03-02T06:01:44;21.90;;;14.93;;
32292;SDS011;43233;48.608;8.838;2024-03-02T06:04:17;25.27;;;15.50;;
32292;SDS011;43233;48.608;8.838;2024-03-02T06:06:43;22.27;;;14.17;;
32292;SDS011;43233;48.608;8.838;2024-03-02T06:09:09;31.27;;;17.07;;
32292;SDS011;43233;48.608;8.838;2024-03-02T06:11:37;28.83;;;17.90;;
32292;SDS011;43233;48.608;8.838;2024-03-02T06:14:04;27.93;;;16.47;;
32292;SDS011;43233;48.608;8.838;2024-03-02T06:16:30;25.20;;;16.10;;
32292;SDS011;43233;48.608;8.838;2024-03-02T06:18:57;25.80;;;15.67;;
32292;SDS011;43233;48.608;8.838;2024-03-02T06:21:25;25.17;;;15.87;;
32292;SDS011;43233;48.608;8.838;2024-03-02T06:23:51;27.37;;;15.30;;
32292;SDS011;43233;48.608;8.838;2024-03-02T06:26:18;28.87;;;15.33;;
32292;SDS011;43233;48.608;8.838;2024-03-02T06:28:44;24.43;;;14.07;;
32292;SDS011;43233;48.608;8.838;2024-03-02T06:31:09;26.10;;;15.73;;
32292;SDS011;43233;48.608;8.838;2024-03-02T06:33:35;26.33;;;15.00;;
32292;SDS011;43233;48.608;8.838;2024-03-02T06:36:01;24.70;;;13.63;;
32292;SDS011;43233;48.608;8.838;2024-03-02T06:38:27;26.70;;;16.17;;
32292;SDS011;43233;48.608;8.838;2024-03-02T06:40:53;33.60;;;17.57;;
32292;SDS011;43233;48.608;8.838;2024-03-02T06:43:19;24.67;;;16.00;;
32292;SDS011;43233;48.608;8.838;2024-03-02T06:45:48;27.33;;;16.20;;
32292;SDS011;43233;48.608;8.838;2024-03-02T06:48:17;28.00;;;17.37;;
32292;SDS011;43233;48.608;8.838;2024-03-02T06:50:46;27.03;;;16.70;;
32292;SDS011;43233;48.608;8.838;2024-03-02T06:53:12;26.47;;;15.90;;
32292;SDS011;43233;48.608;8.838;2024-03-02T06:55:38;26.13;;;14.87;;
32292;SDS011;43233;48.608;8.838;2024-03-02T06:58:04;24.60;;;15.20;;
32292;SDS011;43233;48.608;8.838;2024-03-02T07:00:30;29.03;;;16.07;;
32292;SDS011;43233;48.608;8.838;2024-03-02T07:02:55;27.57;;;15.33;;
32292;SDS011;43233;48.608;8.838;2024-03-02T07:05:21;25.67;;;15.37;;
32292;SDS011;43233;48.608;8.838;2024-03-02T07:07:46;23.73;;;14.63;;
32292;SDS011;43233;48.608;8.838;2024-03-02T07:10:12;20.50;;;13.20;;
32292;SDS011;43233;48.608;8.838;2024-03-02T07:12:38;23.87;;;14.47;;
32292;SDS011;43233;48.608;8.838;2024-03-02T07:15:03;25.70;;;15.10;;
32292;SDS011;43233;48.608;8.838;2024-03-02T07:17:32;23.70;;;14.97;;
32292;SDS011;43233;48.608;8.838;2024-03-02T07:19:58;23.20;;;14.80;;
32292;SDS011;43233;48.608;8.838;2024-03-02T07:22:24;22.20;;;14.50;;
32292;SDS011;43233;48.608;8.838;2024-03-02T07:24:49;24.17;;;15.30;;
32292;SDS011;43233;48.608;8.838;2024-03-02T07:27:16;30.37;;;17.13;;
32292;SDS011;43233;48.608;8.838;2024-03-02T07:29:42;30.17;;;18.13;;
32292;SDS011;43233;48.608;8.838;2024-03-02T07:32:08;33.07;;;17.70;;
32292;SDS011;43233;48.608;8.838;2024-03-02T07:34:35;33.73;;;17.63;;
32292;SDS011;43233;48.608;8.838;2024-03-02T07:37:01;27.70;;;17.67;;
32292;SDS011;43233;48.608;8.838;2024-03-02T07:39:27;29.03;;;17.77;;
32292;SDS011;43233;48.608;8.838;2024-03-02T07:41:54;23.33;;;15.33;;
32292;SDS011;43233;48.608;8.838;2024-03-02T07:44:20;41.17;;;24.47;;
32292;SDS011;43233;48.608;8.838;2024-03-02T07:46:46;29.73;;;18.50;;
32292;SDS011;43233;48.608;8.838;2024-03-02T07:49:14;26.40;;;15.73;;
32292;SDS011;43233;48.608;8.838;2024-03-02T07:51:40;31.10;;;16.13;;
32292;SDS011;43233;48.608;8.838;2024-03-02T07:54:06;26.73;;;15.40;;
32292;SDS011;43233;48.608;8.838;2024-03-02T07:56:32;26.13;;;15.57;;
32292;SDS011;43233;48.608;8.838;2024-03-02T07:58:57;20.90;;;14.13;;
32292;SDS011;43233;48.608;8.838;2024-03-02T08:01:26;23.67;;;14.33;;
32292;SDS011;43233;48.608;8.838;2024-03-02T08:03:59;24.10;;;14.30;;
32292;SDS011;43233;48.608;8.838;2024-03-02T08:06:28;18.70;;;12.23;;
32292;SDS011;43233;48.608;8.838;2024-03-02T08:08:54;28.10;;;15.17;;
32292;SDS011;43233;48.608;8.838;2024-03-02T08:11:20;22.23;;;13.30;;
32292;SDS011;43233;48.608;8.838;2024-03-02T08:13:46;17.77;;;12.57;;
32292;SDS011;43233;48.608;8.838;2024-03-02T08:16:12;20.80;;;12.90;;
32292;SDS011;43233;48.608;8.838;2024-03-02T08:18:39;23.17;;;16.10;;
32292;SDS011;43233;48.608;8.838;2024-03-02T08:21:05;22.20;;;14.33;;
32292;SDS011;43233;48.608;8.838;2024-03-02T08:23:32;21.27;;;13.50;;
32292;SDS011;43233;48.608;8.838;2024-03-02T08:25:59;20.20;;;12.23;;
32292;SDS011;43233;48.608;8.838;2024-03-02T08:28:24;14.60;;;11.57;;
32292;SDS011;43233;48.608;8.838;2024-03-02T08:30:50;20.87;;;13.80;;
32292;SDS011;43233;48.608;8.838;2024-03-02T08:33:15;16.97;;;11.47;;
32292;SDS011;43233;48.608;8.838;2024-03-02T08:35:41;20.63;;;12.27;;
32292;SDS011;43233;48.608;8.838;2024-03-02T08:38:07;19.90;;;13.23;;
32292;SDS011;43233;48.608;8.838;2024-03-02T08:40:32;24.47;;;12.77;;
32292;SDS011;43233;48.608;8.838;2024-03-02T08:42:58;16.77;;;11.13;;
32292;SDS011;43233;48.608;8.838;2024-03-02T08:45:23;17.57;;;10.80;;
32292;SDS011;43233;48.608;8.838;2024-03-02T08:47:49;15.50;;;10.73;;
32292;SDS011;43233;48.608;8.838;2024-03-02T08:50:15;17.77;;;12.67;;
32292;SDS011;43233;48.608;8.838;2024-03-02T08:52:40;14.70;;;10.33;;
32292;SDS011;43233;48.608;8.838;2024-03-02T08:55:06;16.77;;;11.13;;
32292;SDS011;43233;48.608;8.838;2024-03-02T08:57:32;16.50;;;10.43;;
32292;SDS011;43233;48.608;8.838;2024-03-02T08:59:58;13.07;;;9.63;;
32292;SDS011;43233;48.608;8.838;2024-03-02T09:02:24;16.70;;;11.37;;
32292;SDS011;43233;48.608;8.838;2024-03-02T09:04:50;16.20;;;11.13;;
32292;SDS011;43233;48.608;8.838;2024-03-02T09:07:16;16.33;;;11.83;;
32292;SDS011;43233;48.608;8.838;2024-03-02T09:09:41;15.17;;;11.60;;
32292;SDS011;43233;48.608;8.838;2024-03-02T09:12:07;16.17;;;11.30;;
32292;SDS011;43233;48.608;8.838;2024-03-02T09:14:33;18.77;;;12.37;;
32292;SDS011;43233;48.608;8.838;2024-03-02T09:17:00;14.47;;;10.60;;
32292;SDS011;43233;48.608;8.838;2024-03-02T09:19:25;17.37;;;12.03;;
32292;SDS011;43233;48.608;8.838;2024-03-02T09:21:51;17.87;;;13.13;;
32292;SDS011;43233;48.608;8.838;2024-03-02T09:24:16;16.87;;;11.60;;
32292;SDS011;43233;48.608;8.838;2024-03-02T09:26:42;18.97;;;11.50;;
32292;SDS011;43233;48.608;8.838;2024-03-02T09:29:08;15.20;;;11.63;;
32292;SDS011;43233;48.608;8.838;2024-03-02T09:31:38;15.40;;;11.10;;
32292;SDS011;43233;48.608;8.838;2024-03-02T09:34:08;15.23;;;9.90;;
32292;SDS011;43233;48.608;8.838;2024-03-02T09:36:33;20.03;;;10.57;;
32292;SDS011;43233;48.608;8.838;2024-03-02T09:38:59;12.70;;;9.80;;
32292;SDS011;43233;48.608;8.838;2024-03-02T09:41:25;13.77;;;10.43;;
32292;SDS011;43233;48.608;8.838;2024-03-02T09:43:51;14.83;;;10.57;;
32292;SDS011;43233;48.608;8.838;2024-03-02T09:46:16;12.83;;;10.30;;
32292;SDS011;43233;48.608;8.838;2024-03-02T09:48:44;13.40;;;9.37;;
32292;SDS011;43233;48.608;8.838;2024-03-02T09:51:10;12.47;;;9.40;;
32292;SDS011;43233;48.608;8.838;2024-03-02T09:53:36;15.77;;;8.70;;
32292;SDS011;43233;48.608;8.838;2024-03-02T09:56:02;21.00;;;9.97;;
32292;SDS011;43233;48.608;8.838;2024-03-02T09:58:29;13.97;;;10.30;;
32292;SDS011;43233;48.608;8.838;2024-03-02T10:00:55;18.17;;;10.47;;
32292;SDS011;43233;48.608;8.838;2024-03-02T10:03:21;11.80;;;8.50;;
32292;SDS011;43233;48.608;8.838;2024-03-02T10:05:49;13.60;;;8.83;;
32292;SDS011;43233;48.608;8.838;2024-03-02T10:08:15;13.20;;;9.50;;
32292;SDS011;43233;48.608;8.838;2024-03-02T10:10:41;10.17;;;8.63;;
32292;SDS011;43233;48.608;8.838;2024-03-02T10:13:13;11.30;;;8.67;;
32292;SDS011;43233;48.608;8.838;2024-03-02T10:15:39;11.60;;;9.10;;
32292;SDS011;43233;48.608;8.838;2024-03-02T10:18:12;11.03;;;7.60;;
32292;SDS011;43233;48.608;8.838;2024-03-02T10:20:39;11.07;;;8.30;;
32292;SDS011;43233;48.608;8.838;2024-03-02T10:23:14;10.40;;;7.80;;
32292;SDS011;43233;48.608;8.838;2024-03-02T10:25:42;11.00;;;7.50;;
32292;SDS011;43233;48.608;8.838;2024-03-02T10:28:08;9.63;;;7.97;;
32292;SDS011;43233;48.608;8.838;2024-03-02T10:30:34;9.17;;;7.50;;
32292;SDS011;43233;48.608;8.838;2024-03-02T10:33:01;8.07;;;7.03;;
32292;SDS011;43233;48.608;8.838;2024-03-02T10:35:27;9.97;;;7.10;;
32292;SDS011;43233;48.608;8.838;2024-03-02T10:37:54;9.83;;;6.33;;
32292;SDS011;43233;48.608;8.838;2024-03-02T10:40:23;8.97;;;7.57;;
32292;SDS011;43233;48.608;8.838;2024-03-02T10:42:49;8.60;;;6.77;;
32292;SDS011;43233;48.608;8.838;2024-03-02T10:45:17;8.10;;;6.23;;
32292;SDS011;43233;48.608;8.838;2024-03-02T10:47:45;8.20;;;6.20;;
32292;SDS011;43233;48.608;8.838;2024-03-02T10:50:11;6.23;;;5.63;;
32292;SDS011;43233;48.608;8.838;2024-03-02T10:52:37;6.00;;;4.97;;
32292;SDS011;43233;48.608;8.838;2024-03-02T10:55:07;7.67;;;5.13;;
32292;SDS011;43233;48.608;8.838;2024-03-02T10:58:07;6.63;;;5.70;;
32292;SDS011;43233;48.608;8.838;2024-03-02T11:00:31;6.93;;;5.33;;
32292;SDS011;43233;48.608;8.838;2024-03-02T11:03:05;5.53;;;5.00;;
32292;SDS011;43233;48.608;8.838;2024-03-02T11:05:31;6.50;;;5.10;;
32292;SDS011;43233;48.608;8.838;2024-03-02T11:08:01;5.07;;;4.57;;
32292;SDS011;43233;48.608;8.838;2024-03-02T11:10:33;6.77;;;5.47;;
32292;SDS011;43233;48.608;8.838;2024-03-02T11:13:02;5.53;;;4.73;;
32292;SDS011;43233;48.608;8.838;2024-03-02T11:15:31;4.90;;;4.40;;
32292;SDS011;43233;48.608;8.838;2024-03-02T11:17:59;6.40;;;4.70;;
32292;SDS011;43233;48.608;8.838;2024-03-02T11:20:26;7.50;;;4.37;;
32292;SDS011;43233;48.608;8.838;2024-03-02T11:22:52;5.00;;;4.50;;
32292;SDS011;43233;48.608;8.838;2024-03-02T11:25:24;6.80;;;5.23;;
32292;SDS011;43233;48.608;8.838;2024-03-02T11:32:58;4.50;;;4.10;;
32292;SDS011;43233;48.608;8.838;2024-03-02T11:35:24;3.47;;;3.17;;
32292;SDS011;43233;48.608;8.838;2024-03-02T11:37:50;4.80;;;3.60;;
32292;SDS011;43233;48.608;8.838;2024-03-02T11:40:22;4.60;;;3.60;;
32292;SDS011;43233;48.608;8.838;2024-03-02T11:42:49;3.73;;;3.43;;
32292;SDS011;43233;48.608;8.838;2024-03-02T11:45:16;3.40;;;3.00;;
32292;SDS011;43233;48.608;8.838;2024-03-02T11:47:46;3.97;;;3.60;;
32292;SDS011;43233;48.608;8.838;2024-03-02T11:50:15;3.20;;;3.00;;
32292;SDS011;43233;48.608;8.838;2024-03-02T11:52:41;3.20;;;2.90;;
32292;SDS011;43233;48.608;8.838;2024-03-02T11:55:08;3.10;;;2.90;;
32292;SDS011;43233;48.608;8.838;2024-03-02T11:57:35;2.80;;;2.60;;
32292;SDS011;43233;48.608;8.838;2024-03-02T12:00:02;2.73;;;2.53;;
32292;SDS011;43233;48.608;8.838;2024-03-02T12:02:28;2.80;;;2.60;;
32292;SDS011;43233;48.608;8.838;2024-03-02T12:04:54;6.67;;;2.50;;
32292;SDS011;43233;48.608;8.838;2024-03-02T12:07:22;3.10;;;2.10;;
32292;SDS011;43233;48.608;8.838;2024-03-02T12:10:00;3.60;;;2.20;;
32292;SDS011;43233;48.608;8.838;2024-03-02T12:12:27;3.37;;;2.47;;
32292;SDS011;43233;48.608;8.838;2024-03-02T12:14:53;2.60;;;2.00;;
32292;SDS011;43233;48.608;8.838;2024-03-02T12:17:20;6.13;;;2.40;;
32292;SDS011;43233;48.608;8.838;2024-03-02T12:19:46;2.00;;;1.90;;
32292;SDS011;43233;48.608;8.838;2024-03-02T12:22:12;2.30;;;2.10;;
32292;SDS011;43233;48.608;8.838;2024-03-02T12:24:38;1.73;;;1.63;;
32292;SDS011;43233;48.608;8.838;2024-03-02T12:27:07;1.57;;;1.47;;
32292;SDS011;43233;48.608;8.838;2024-03-02T12:29:33;2.10;;;1.90;;
32292;SDS011;43233;48.608;8.838;2024-03-02T12:31:59;2.43;;;2.07;;
32292;SDS011;43233;48.608;8.838;2024-03-02T12:34:27;1.60;;;1.50;;
32292;SDS011;43233;48.608;8.838;2024-03-02T12:36:53;1.83;;;1.73;;
32292;SDS011;43233;48.608;8.838;2024-03-02T12:39:18;3.53;;;1.60;;
32292;SDS011;43233;48.608;8.838;2024-03-02T12:41:48;1.97;;;1.87;;
32292;SDS011;43233;48.608;8.838;2024-03-02T12:44:15;1.90;;;1.70;;
32292;SDS011;43233;48.608;8.838;2024-03-02T12:46:42;1.77;;;1.67;;
32292;SDS011;43233;48.608;8.838;2024-03-02T12:49:09;2.40;;;2.20;;
32292;SDS011;43233;48.608;8.838;2024-03-02T12:51:36;3.03;;;1.83;;
32292;SDS011;43233;48.608;8.838;2024-03-02T12:54:02;1.90;;;1.80;;
32292;SDS011;43233;48.608;8.838;2024-03-02T12:56:30;2.43;;;2.20;;
32292;SDS011;43233;48.608;8.838;2024-03-02T12:58:56;2.37;;;2.13;;
32292;SDS011;43233;48.608;8.838;2024-03-02T13:01:22;2.20;;;2.00;;
32292;SDS011;43233;48.608;8.838;2024-03-02T13:03:49;3.17;;;2.10;;
32292;SDS011;43233;48.608;8.838;2024-03-02T13:06:17;4.00;;;2.43;;
32292;SDS011;43233;48.608;8.838;2024-03-02T13:08:44;2.03;;;1.93;;
32292;SDS011;43233;48.608;8.838;2024-03-02T13:11:11;3.03;;;2.30;;
32292;SDS011;43233;48.608;8.838;2024-03-02T13:13:38;2.13;;;2.00;;
32292;SDS011;43233;48.608;8.838;2024-03-02T13:16:08;1.63;;;1.53;;
32292;SDS011;43233;48.608;8.838;2024-03-02T13:18:35;2.47;;;2.27;;
32292;SDS011;43233;48.608;8.838;2024-03-02T13:21:00;2.13;;;1.93;;
32292;SDS011;43233;48.608;8.838;2024-03-02T13:23:26;3.10;;;2.90;;
32292;SDS011;43233;48.608;8.838;2024-03-02T13:25:54;9.80;;;2.80;;
32292;SDS011;43233;48.608;8.838;2024-03-02T13:28:19;2.70;;;2.17;;
32292;SDS011;43233;48.608;8.838;2024-03-02T13:30:45;2.77;;;1.77;;
32292;SDS011;43233;48.608;8.838;2024-03-02T13:33:10;2.33;;;2.07;;
32292;SDS011;43233;48.608;8.838;2024-03-02T13:35:36;1.80;;;1.70;;
32292;SDS011;43233;48.608;8.838;2024-03-02T13:38:02;2.43;;;2.10;;
32292;SDS011;43233;48.608;8.838;2024-03-02T13:40:27;2.07;;;1.97;;
32292;SDS011;43233;48.608;8.838;2024-03-02T13:42:54;10.53;;;2.00;;
32292;SDS011;43233;48.608;8.838;2024-03-02T13:45:19;2.40;;;2.20;;
32292;SDS011;43233;48.608;8.838;2024-03-02T13:47:46;2.17;;;1.97;;
32292;SDS011;43233;48.608;8.838;2024-03-02T13:50:12;2.10;;;1.97;;
32292;SDS011;43233;48.608;8.838;2024-03-02T13:52:37;2.23;;;1.87;;
32292;SDS011;43233;48.608;8.838;2024-03-02T13:55:03;2.10;;;2.00;;
32292;SDS011;43233;48.608;8.838;2024-03-02T13:57:29;7.47;;;2.13;;
32292;SDS011;43233;48.608;8.838;2024-03-02T13:59:55;2.20;;;2.00;;
32292;SDS011;43233;48.608;8.838;2024-03-02T14:02:21;3.73;;;2.40;;
32292;SDS011;43233;48.608;8.838;2024-03-02T14:04:48;2.33;;;1.93;;
32292;SDS011;43233;48.608;8.838;2024-03-02T14:07:14;2.23;;;2.03;;
32292;SDS011;43233;48.608;8.838;2024-03-02T14:09:40;4.67;;;2.00;;
32292;SDS011;43233;48.608;8.838;2024-03-02T14:12:06;2.33;;;1.67;;
32292;SDS011;43233;48.608;8.838;2024-03-02T14:14:32;2.17;;;1.97;;
32292;SDS011;43233;48.608;8.838;2024-03-02T14:16:57;1.57;;;1.47;;
32292;SDS011;43233;48.608;8.838;2024-03-02T14:19:29;3.43;;;2.23;;
32292;SDS011;43233;48.608;8.838;2024-03-02T14:21:55;2.40;;;2.20;;
32292;SDS011;43233;48.608;8.838;2024-03-02T14:24:21;2.70;;;1.90;;
32292;SDS011;43233;48.608;8.838;2024-03-02T14:26:50;2.33;;;2.17;;
32292;SDS011;43233;48.608;8.838;2024-03-02T14:29:19;1.97;;;1.83;;
32292;SDS011;43233;48.608;8.838;2024-03-02T14:31:44;2.20;;;2.00;;
32292;SDS011;43233;48.608;8.838;2024-03-02T14:34:13;2.40;;;2.17;;
32292;SDS011;43233;48.608;8.838;2024-03-02T14:36:39;2.87;;;1.90;;
32292;SDS011;43233;48.608;8.838;2024-03-02T14:39:06;4.87;;;2.07;;